sensor_id;sensor_type;location;lat;lon;timestamp;P1;durP1;ratioP1;P2;durP2;ratioP2
8359;SDS011;4217;48.762;11.428;2022-08-21T00:09:29;16.97;;;16.17;;
8359;SDS011;4217;48.762;11.428;2022-08-21T00:19:31;13.73;;;13.03;;
8359;SDS011;4217;48.762;11.428;2022-08-21T00:29:33;11.87;;;11.37;;
8359;SDS011;4217;48.762;11.428;2022-08-21T00:39:34;12.83;;;12.13;;
8359;SDS011;4217;48.762;11.428;2022-08-21T00:49:36;21.77;;;20.77;;
8359;SDS011;4217;48.762;11.428;2022-08-21T00:59:39;28.97;;;27.50;;
8359;SDS011;4217;48.762;11.428;2022-08-21T01:09:41;33.30;;;31.13;;
8359;SDS011;4217;48.762;11.428;2022-08-21T01:19:44;30.13;;;28.13;;
8359;SDS011;4217;48.762;11.428;2022-08-21T01:29:51;24.83;;;23.53;;
8359;SDS011;4217;48.762;11.428;2022-08-21T01:39:57;21.40;;;20.30;;
8359;SDS011;4217;48.762;11.428;2022-08-21T01:49:59;21.87;;;20.80;;
8359;SDS011;4217;48.762;11.428;2022-08-21T02:00:01;18.50;;;17.70;;
8359;SDS011;4217;48.762;11.428;2022-08-21T02:10:13;17.90;;;17.00;;
8359;SDS011;4217;48.762;11.428;2022-08-21T02:20:24;16.43;;;15.67;;
8359;SDS011;4217;48.762;11.428;2022-08-21T02:30:33;16.23;;;15.43;;
8359;SDS011;4217;48.762;11.428;2022-08-21T02:40:40;16.30;;;15.50;;
8359;SDS011;4217;48.762;11.428;2022-08-21T02:50:52;10.67;;;10.00;;
8359;SDS011;4217;48.762;11.428;2022-08-21T03:00:57;11.20;;;10.50;;
8359;SDS011;4217;48.762;11.428;2022-08-21T03:10:59;12.97;;;12.03;;
8359;SDS011;4217;48.762;11.428;2022-08-21T03:21:02;12.60;;;11.70;;
8359;SDS011;4217;48.762;11.428;2022-08-21T03:31:03;13.20;;;12.40;;
8359;SDS011;4217;48.762;11.428;2022-08-21T03:41:07;13.17;;;12.37;;
8359;SDS011;4217;48.762;11.428;2022-08-21T03:51:09;14.20;;;13.27;;
8359;SDS011;4217;48.762;11.428;2022-08-21T04:01:10;14.83;;;13.83;;
8359;SDS011;4217;48.762;11.428;2022-08-21T04:11:12;15.47;;;14.47;;
8359;SDS011;4217;48.762;11.428;2022-08-21T04:21:14;16.03;;;15.03;;
8359;SDS011;4217;48.762;11.428;2022-08-21T04:31:17;17.40;;;16.10;;
8359;SDS011;4217;48.762;11.428;2022-08-21T04:41:18;16.73;;;15.63;;
8359;SDS011;4217;48.762;11.428;2022-08-21T04:51:29;16.67;;;15.43;;
8359;SDS011;4217;48.762;11.428;2022-08-21T05:01:35;16.97;;;15.87;;
8359;SDS011;4217;48.762;11.428;2022-08-21T05:11:39;15.73;;;14.73;;
8359;SDS011;4217;48.762;11.428;2022-08-21T05:21:41;13.73;;;12.73;;
8359;SDS011;4217;48.762;11.428;2022-08-21T05:31:45;12.83;;;11.90;;
8359;SDS011;4217;48.762;11.428;2022-08-21T05:41:47;11.53;;;10.70;;
8359;SDS011;4217;48.762;11.428;2022-08-21T05:51:50;9.90;;;9.20;;
8359;SDS011;4217;48.762;11.428;2022-08-21T06:01:51;8.00;;;7.50;;
8359;SDS011;4217;48.762;11.428;2022-08-21T06:11:53;7.60;;;7.03;;
8359;SDS011;4217;48.762;11.428;2022-08-21T06:21:55;6.67;;;6.27;;
8359;SDS011;4217;48.762;11.428;2022-08-21T06:31:56;5.03;;;4.73;;
8359;SDS011;4217;48.762;11.428;2022-08-21T06:41:59;4.70;;;4.40;;
8359;SDS011;4217;48.762;11.428;2022-08-21T06:52:02;5.53;;;5.03;;
8359;SDS011;4217;48.762;11.428;2022-08-21T07:02:04;5.60;;;5.30;;
8359;SDS011;4217;48.762;11.428;2022-08-21T07:12:06;6.33;;;5.90;;
8359;SDS011;4217;48.762;11.428;2022-08-21T07:22:07;6.70;;;6.30;;
8359;SDS011;4217;48.762;11.428;2022-08-21T07:32:09;6.53;;;6.13;;
8359;SDS011;4217;48.762;11.428;2022-08-21T07:42:10;8.43;;;7.93;;
8359;SDS011;4217;48.762;11.428;2022-08-21T07:52:12;11.47;;;10.87;;
8359;SDS011;4217;48.762;11.428;2022-08-21T08:02:27;11.83;;;11.13;;
8359;SDS011;4217;48.762;11.428;2022-08-21T08:12:30;7.37;;;6.97;;
8359;SDS011;4217;48.762;11.428;2022-08-21T08:22:33;5.07;;;4.80;;
8359;SDS011;4217;48.762;11.428;2022-08-21T08:32:44;5.73;;;5.33;;
8359;SDS011;4217;48.762;11.428;2022-08-21T08:42:47;6.00;;;5.67;;
8359;SDS011;4217;48.762;11.428;2022-08-21T08:52:51;5.30;;;5.00;;
8359;SDS011;4217;48.762;11.428;2022-08-21T09:02:57;5.72;;;5.43;;
8359;SDS011;4217;48.762;11.428;2022-08-21T09:34:05;4.10;;;3.90;;
8359;SDS011;4217;48.762;11.428;2022-08-21T09:44:09;5.13;;;4.93;;
8359;SDS011;4217;48.762;11.428;2022-08-21T09:54:14;5.00;;;4.72;;
8359;SDS011;4217;48.762;11.428;2022-08-21T10:04:23;4.28;;;4.07;;
8359;SDS011;4217;48.762;11.428;2022-08-21T10:35:37;4.55;;;4.35;;
8359;SDS011;4217;48.762;11.428;2022-08-21T10:56:17;4.07;;;3.88;;
8359;SDS011;4217;48.762;11.428;2022-08-21T11:06:25;4.35;;;4.15;;
8359;SDS011;4217;48.762;11.428;2022-08-21T11:16:33;3.90;;;3.70;;
8359;SDS011;4217;48.762;11.428;2022-08-21T11:26:57;4.03;;;3.72;;
8359;SDS011;4217;48.762;11.428;2022-08-21T11:37:09;6.22;;;5.93;;
8359;SDS011;4217;48.762;11.428;2022-08-21T11:47:18;3.65;;;3.45;;
8359;SDS011;4217;48.762;11.428;2022-08-21T12:08:11;4.25;;;4.03;;
8359;SDS011;4217;48.762;11.428;2022-08-21T12:18:23;4.45;;;4.15;;
8359;SDS011;4217;48.762;11.428;2022-08-21T12:28:30;4.82;;;4.53;;
8359;SDS011;4217;48.762;11.428;2022-08-21T12:38:34;3.35;;;3.13;;
8359;SDS011;4217;48.762;11.428;2022-08-21T12:48:49;3.20;;;3.00;;
8359;SDS011;4217;48.762;11.428;2022-08-21T12:59:04;3.50;;;3.15;;
8359;SDS011;4217;48.762;11.428;2022-08-21T13:09:13;4.13;;;3.83;;
8359;SDS011;4217;48.762;11.428;2022-08-21T13:19:17;3.50;;;3.30;;
8359;SDS011;4217;48.762;11.428;2022-08-21T13:29:28;3.05;;;2.85;;
8359;SDS011;4217;48.762;11.428;2022-08-21T13:39:32;3.10;;;2.90;;
8359;SDS011;4217;48.762;11.428;2022-08-21T13:49:38;3.20;;;3.00;;
8359;SDS011;4217;48.762;11.428;2022-08-21T13:59:43;3.38;;;3.17;;
8359;SDS011;4217;48.762;11.428;2022-08-21T14:09:45;2.80;;;2.70;;
8359;SDS011;4217;48.762;11.428;2022-08-21T14:19:48;3.80;;;3.60;;
8359;SDS011;4217;48.762;11.428;2022-08-21T14:29:49;3.38;;;3.17;;
8359;SDS011;4217;48.762;11.428;2022-08-21T14:39:51;3.30;;;3.10;;
8359;SDS011;4217;48.762;11.428;2022-08-21T14:49:52;3.47;;;3.03;;
8359;SDS011;4217;48.762;11.428;2022-08-21T14:59:55;2.50;;;2.40;;
8359;SDS011;4217;48.762;11.428;2022-08-21T15:10:02;2.95;;;2.75;;
8359;SDS011;4217;48.762;11.428;2022-08-21T15:20:04;2.60;;;2.47;;
8359;SDS011;4217;48.762;11.428;2022-08-21T15:30:07;2.47;;;2.38;;
8359;SDS011;4217;48.762;11.428;2022-08-21T15:40:09;2.58;;;2.42;;
8359;SDS011;4217;48.762;11.428;2022-08-21T15:50:11;2.70;;;2.60;;
8359;SDS011;4217;48.762;11.428;2022-08-21T16:00:19;6.40;;;6.13;;
8359;SDS011;4217;48.762;11.428;2022-08-21T16:10:24;3.33;;;3.13;;
8359;SDS011;4217;48.762;11.428;2022-08-21T16:20:31;3.20;;;3.00;;
8359;SDS011;4217;48.762;11.428;2022-08-21T16:30:33;2.97;;;2.77;;
8359;SDS011;4217;48.762;11.428;2022-08-21T16:40:35;2.67;;;2.57;;
8359;SDS011;4217;48.762;11.428;2022-08-21T16:50:37;7.93;;;7.63;;
8359;SDS011;4217;48.762;11.428;2022-08-21T17:00:38;2.60;;;2.40;;
8359;SDS011;4217;48.762;11.428;2022-08-21T17:10:43;2.50;;;2.30;;
8359;SDS011;4217;48.762;11.428;2022-08-21T17:20:48;2.67;;;2.57;;
8359;SDS011;4217;48.762;11.428;2022-08-21T17:30:54;2.93;;;2.83;;
8359;SDS011;4217;48.762;11.428;2022-08-21T17:40:57;2.83;;;2.73;;
8359;SDS011;4217;48.762;11.428;2022-08-21T17:51:00;6.20;;;5.80;;
8359;SDS011;4217;48.762;11.428;2022-08-21T18:01:02;3.77;;;3.57;;
8359;SDS011;4217;48.762;11.428;2022-08-21T18:11:06;5.33;;;5.03;;
8359;SDS011;4217;48.762;11.428;2022-08-21T18:21:11;5.00;;;4.70;;
8359;SDS011;4217;48.762;11.428;2022-08-21T18:31:12;4.80;;;4.60;;
8359;SDS011;4217;48.762;11.428;2022-08-21T18:41:14;3.30;;;3.10;;
8359;SDS011;4217;48.762;11.428;2022-08-21T18:51:16;3.77;;;3.57;;
8359;SDS011;4217;48.762;11.428;2022-08-21T19:01:19;8.70;;;8.30;;
8359;SDS011;4217;48.762;11.428;2022-08-21T19:11:22;3.83;;;3.53;;
8359;SDS011;4217;48.762;11.428;2022-08-21T19:21:25;4.20;;;4.00;;
8359;SDS011;4217;48.762;11.428;2022-08-21T19:31:28;4.17;;;3.87;;
8359;SDS011;4217;48.762;11.428;2022-08-21T19:41:34;4.33;;;4.03;;
8359;SDS011;4217;48.762;11.428;2022-08-21T19:51:37;4.70;;;4.40;;
8359;SDS011;4217;48.762;11.428;2022-08-21T20:01:38;3.90;;;3.70;;
8359;SDS011;4217;48.762;11.428;2022-08-21T20:11:41;5.60;;;5.10;;
8359;SDS011;4217;48.762;11.428;2022-08-21T20:21:49;5.60;;;5.30;;
8359;SDS011;4217;48.762;11.428;2022-08-21T20:31:50;5.20;;;4.90;;
8359;SDS011;4217;48.762;11.428;2022-08-21T20:41:52;5.83;;;5.30;;
8359;SDS011;4217;48.762;11.428;2022-08-21T20:51:55;5.30;;;4.90;;
8359;SDS011;4217;48.762;11.428;2022-08-21T21:12:27;6.03;;;5.63;;
8359;SDS011;4217;48.762;11.428;2022-08-21T21:22:37;8.80;;;5.50;;
8359;SDS011;4217;48.762;11.428;2022-08-21T21:32:46;29.83;;;28.73;;
8359;SDS011;4217;48.762;11.428;2022-08-21T22:03:23;6.50;;;6.10;;
8359;SDS011;4217;48.762;11.428;2022-08-21T22:13:47;6.80;;;6.40;;
8359;SDS011;4217;48.762;11.428;2022-08-21T22:23:59;6.60;;;6.20;;
8359;SDS011;4217;48.762;11.428;2022-08-21T22:34:17;5.70;;;5.30;;
8359;SDS011;4217;48.762;11.428;2022-08-21T22:44:21;7.10;;;6.70;;
8359;SDS011;4217;48.762;11.428;2022-08-21T22:54:31;7.37;;;6.87;;
8359;SDS011;4217;48.762;11.428;2022-08-21T23:04:43;8.90;;;8.40;;
8359;SDS011;4217;48.762;11.428;2022-08-21T23:14:47;11.30;;;10.70;;
8359;SDS011;4217;48.762;11.428;2022-08-21T23:35:59;21.47;;;20.57;;
8359;SDS011;4217;48.762;11.428;2022-08-21T23:46:34;7.63;;;7.17;;
